createdAt,value
2023-09-04T00:00:06.914Z,22.63
2023-09-04T00:02:33.551Z,22.61
2023-09-04T00:05:00.184Z,22.65
2023-09-04T00:07:26.663Z,22.73
2023-09-04T00:09:53.740Z,22.65
2023-09-04T00:12:20.344Z,22.69
2023-09-04T00:14:46.839Z,22.55
2023-09-04T00:17:13.380Z,22.60
2023-09-04T00:19:39.931Z,22.53
2023-09-04T00:22:06.444Z,22.56
2023-09-04T00:24:33.010Z,22.47
2023-09-04T00:26:59.520Z,22.47
2023-09-04T00:29:26.045Z,22.43
2023-09-04T00:31:52.669Z,22.39
2023-09-04T00:34:19.529Z,22.36
2023-09-04T00:36:46.129Z,22.40
2023-09-04T00:39:12.741Z,22.37
2023-09-04T00:41:39.232Z,22.47
2023-09-04T00:44:06.121Z,22.40
2023-09-04T00:46:33.170Z,22.20
2023-09-04T00:48:59.981Z,22.11
2023-09-04T00:51:26.747Z,22.05
2023-09-04T00:53:53.654Z,22.05
2023-09-04T00:56:21.084Z,22.10
2023-09-04T00:58:48.520Z,22.14
2023-09-04T01:01:15.049Z,22.09
2023-09-04T01:03:42.304Z,22.22
2023-09-04T01:06:08.959Z,22.14
2023-09-04T01:08:37.495Z,22.13
2023-09-04T01:11:13.149Z,22.05
2023-09-04T01:13:50.498Z,22.08
2023-09-04T01:16:18.485Z,22.08
2023-09-04T01:18:45.586Z,22.12
2023-09-04T01:21:12.380Z,22.01
2023-09-04T01:23:38.975Z,21.91
2023-09-04T01:26:09.558Z,21.89
2023-09-04T01:28:43.791Z,21.98
2023-09-04T01:31:35.839Z,21.94
2023-09-04T01:34:10.194Z,21.70
2023-09-04T01:36:37.452Z,21.57
2023-09-04T01:39:05.017Z,21.58
2023-09-04T01:41:31.770Z,21.46
2023-09-04T01:43:58.376Z,21.41
2023-09-04T01:46:25.188Z,21.48
2023-09-04T01:48:51.765Z,21.52
2023-09-04T01:51:18.352Z,21.53
2023-09-04T01:53:44.882Z,21.50
2023-09-04T01:56:11.505Z,21.41
2023-09-04T01:58:38.060Z,21.49
2023-09-04T02:01:04.526Z,21.55
2023-09-04T02:03:31.144Z,21.56
2023-09-04T02:05:57.865Z,21.47
2023-09-04T02:08:24.805Z,21.47
2023-09-04T02:10:52.055Z,21.49
2023-09-04T02:13:18.736Z,21.47
2023-09-04T02:15:45.288Z,21.56
2023-09-04T02:18:11.991Z,21.57
2023-09-04T02:20:38.532Z,21.51
2023-09-04T02:23:05.375Z,21.51
2023-09-04T02:25:31.924Z,21.69
2023-09-04T02:27:58.478Z,21.57
2023-09-04T02:30:25.083Z,21.63
2023-09-04T02:32:51.689Z,21.76
2023-09-04T02:35:18.195Z,21.75
2023-09-04T02:37:45.784Z,21.80
2023-09-04T02:40:12.903Z,21.73
2023-09-04T02:42:39.522Z,21.56
2023-09-04T02:45:07.131Z,21.58
2023-09-04T02:47:33.679Z,21.57
2023-09-04T02:50:00.186Z,21.62
2023-09-04T02:52:26.700Z,21.50
2023-09-04T02:54:53.390Z,21.53
2023-09-04T02:57:19.907Z,21.37
2023-09-04T02:59:46.561Z,21.23
2023-09-04T03:02:13.172Z,21.23
2023-09-04T03:04:39.747Z,21.28
2023-09-04T03:07:06.266Z,21.20
2023-09-04T03:09:33.196Z,21.23
2023-09-04T03:12:00.376Z,21.37
2023-09-04T03:14:27.078Z,21.27
2023-09-04T03:16:53.903Z,21.22
2023-09-04T03:19:20.401Z,21.20
2023-09-04T03:21:46.941Z,21.11
2023-09-04T03:24:13.505Z,21.12
2023-09-04T03:26:40.112Z,21.18
2023-09-04T03:29:06.561Z,21.26
2023-09-04T03:31:33.114Z,21.20
2023-09-04T03:34:01.656Z,21.26
2023-09-04T03:36:28.242Z,21.04
2023-09-04T03:38:54.789Z,21.01
2023-09-04T03:41:21.309Z,20.96
2023-09-04T03:43:47.827Z,21.07
2023-09-04T03:46:14.604Z,21.04
2023-09-04T03:48:41.237Z,21.08
2023-09-04T03:51:07.986Z,21.20
2023-09-04T03:53:34.509Z,21.08
2023-09-04T03:56:05.887Z,21.33
2023-09-04T03:58:35.314Z,21.27
2023-09-04T04:01:01.982Z,21.29
2023-09-04T04:03:28.666Z,21.21
2023-09-04T04:05:55.364Z,21.12
2023-09-04T04:08:22.405Z,21.13
2023-09-04T04:10:49.193Z,21.12
2023-09-04T04:13:15.720Z,21.49
2023-09-04T04:15:42.891Z,21.54
2023-09-04T04:18:10.669Z,21.54
2023-09-04T04:20:37.602Z,21.75
2023-09-04T04:23:04.334Z,21.62
2023-09-04T04:25:30.818Z,21.47
2023-09-04T04:27:57.469Z,21.53
2023-09-04T04:30:24.098Z,21.60
2023-09-04T04:32:52.141Z,21.62
2023-09-04T04:35:18.893Z,21.53
2023-09-04T04:37:45.430Z,21.64
2023-09-04T04:42:38.817Z,21.57
2023-09-04T04:45:05.878Z,21.48
2023-09-04T04:47:32.484Z,21.62
2023-09-04T04:49:59.084Z,21.47
2023-09-04T04:52:25.599Z,21.43
2023-09-04T04:54:52.134Z,21.49
2023-09-04T04:57:18.761Z,21.18
2023-09-04T04:59:46.317Z,21.29
2023-09-04T05:02:14.113Z,21.34
2023-09-04T05:04:46.253Z,21.12
2023-09-04T05:07:13.132Z,21.20
2023-09-04T05:09:39.730Z,21.23
2023-09-04T05:12:07.830Z,20.96
2023-09-04T05:14:34.919Z,21.22
2023-09-04T05:17:01.535Z,21.06
2023-09-04T05:19:30.513Z,21.34
2023-09-04T05:21:57.460Z,21.49
2023-09-04T05:24:24.359Z,21.47
2023-09-04T05:26:51.193Z,21.47
2023-09-04T05:29:17.767Z,21.71
2023-09-04T05:31:44.288Z,21.69
2023-09-04T05:34:10.823Z,21.54
2023-09-04T05:36:37.528Z,21.48
2023-09-04T05:39:04.408Z,21.38
2023-09-04T05:41:31.225Z,21.46
2023-09-04T05:43:57.895Z,21.43
2023-09-04T05:46:24.485Z,21.18
2023-09-04T05:48:51.040Z,21.23
2023-09-04T05:51:17.607Z,21.28
2023-09-04T05:53:47.013Z,21.48
2023-09-04T05:56:20.686Z,21.68
2023-09-04T05:58:50.608Z,21.72
2023-09-04T06:01:18.327Z,22.09
2023-09-04T06:03:46.327Z,22.13
2023-09-04T06:06:13.793Z,22.33
2023-09-04T06:08:40.512Z,22.55
2023-09-04T06:11:07.162Z,23.03
2023-09-04T06:13:34.169Z,23.25
2023-09-04T06:16:01.783Z,22.87
2023-09-04T06:18:31.601Z,22.50
2023-09-04T06:20:58.690Z,22.53
2023-09-04T06:23:25.424Z,22.68
2023-09-04T06:25:51.969Z,22.36
2023-09-04T06:28:18.768Z,22.61
2023-09-04T06:30:46.398Z,23.04
2023-09-04T06:33:13.158Z,23.40
2023-09-04T06:35:39.778Z,23.69
2023-09-04T06:38:07.043Z,23.48
2023-09-04T06:40:33.743Z,23.51
2023-09-04T06:43:00.320Z,23.85
2023-09-04T06:45:27.083Z,23.92
2023-09-04T06:47:54.319Z,24.14
2023-09-04T06:50:20.905Z,24.75
2023-09-04T06:52:47.657Z,25.03
2023-09-04T06:55:14.309Z,25.43
2023-09-04T06:57:40.858Z,25.45
2023-09-04T07:00:12.076Z,25.35
2023-09-04T07:02:38.856Z,25.47
2023-09-04T07:05:08.370Z,25.58
2023-09-04T07:07:38.156Z,26.07
2023-09-04T07:10:06.046Z,26.28
2023-09-04T07:12:35.818Z,26.78
2023-09-04T07:15:02.707Z,26.61
2023-09-04T07:17:29.449Z,27.39
2023-09-04T07:19:56.049Z,27.25
2023-09-04T07:22:22.592Z,27.47
2023-09-04T07:24:49.230Z,27.98
2023-09-04T07:27:15.808Z,28.12
2023-09-04T07:29:42.324Z,28.34
2023-09-04T07:32:08.840Z,28.66
2023-09-04T07:34:36.605Z,28.68
2023-09-04T07:37:03.871Z,29.41
2023-09-04T07:39:30.576Z,29.40
2023-09-04T07:41:59.884Z,29.59
2023-09-04T07:44:26.495Z,29.72
2023-09-04T07:46:54.095Z,29.87
2023-09-04T07:49:20.997Z,29.66
2023-09-04T07:51:47.608Z,30.27
2023-09-04T07:54:14.209Z,29.96
2023-09-04T07:56:42.776Z,30.54
2023-09-04T07:59:10.785Z,30.40
2023-09-04T08:01:37.602Z,30.78
2023-09-04T08:04:04.789Z,31.43
2023-09-04T08:06:31.392Z,31.81
2023-09-04T08:08:58.352Z,32.55
2023-09-04T08:11:25.089Z,32.42
2023-09-04T08:13:51.624Z,33.62
2023-09-04T08:16:18.274Z,34.20
2023-09-04T08:18:44.814Z,34.06
2023-09-04T08:21:11.421Z,33.29
2023-09-04T08:23:37.964Z,33.69
2023-09-04T08:26:05.483Z,33.57
2023-09-04T08:28:32.144Z,33.43
2023-09-04T08:30:58.855Z,33.44
2023-09-04T08:33:25.768Z,32.97
2023-09-04T08:35:52.541Z,33.54
2023-09-04T08:38:19.035Z,33.27
2023-09-04T08:40:46.716Z,33.38
2023-09-04T08:43:13.365Z,33.90
2023-09-04T08:45:43.508Z,35.15
2023-09-04T08:48:12.719Z,34.50
2023-09-04T08:50:39.278Z,32.99
2023-09-04T08:53:05.794Z,33.43
2023-09-04T08:55:35.052Z,34.04
2023-09-04T08:58:03.234Z,34.50
2023-09-04T09:00:30.086Z,34.60
2023-09-04T09:03:02.251Z,34.33
2023-09-04T09:05:30.471Z,34.09
2023-09-04T09:07:57.817Z,33.48
2023-09-04T09:10:25.088Z,34.48
2023-09-04T09:12:51.745Z,35.02
2023-09-04T09:15:18.506Z,34.67
2023-09-04T09:17:55.923Z,34.20
2023-09-04T09:20:45.555Z,34.39
2023-09-04T09:23:15.854Z,34.54
2023-09-04T09:25:42.491Z,34.82
2023-09-04T09:28:09.555Z,34.96
2023-09-04T09:30:39.045Z,34.91
2023-09-04T09:33:13.548Z,35.50
2023-09-04T09:35:44.004Z,35.54
2023-09-04T09:38:10.895Z,37.06
2023-09-04T09:40:38.500Z,36.99
2023-09-04T09:43:05.683Z,37.72
2023-09-04T09:45:37.548Z,37.37
2023-09-04T09:48:09.211Z,36.89
2023-09-04T09:50:41.331Z,36.92
2023-09-04T09:53:07.968Z,37.06
2023-09-04T09:55:35.969Z,37.33
2023-09-04T09:58:02.842Z,37.46
2023-09-04T10:00:30.175Z,36.65
2023-09-04T10:02:57.496Z,36.93
2023-09-04T10:05:25.195Z,36.39
2023-09-04T10:07:59.910Z,36.85
2023-09-04T10:10:26.619Z,37.23
2023-09-04T10:13:03.931Z,37.12
2023-09-04T10:15:33.274Z,36.90
2023-09-04T10:18:06.785Z,37.09
2023-09-04T10:20:35.114Z,37.47
2023-09-04T10:23:08.445Z,37.67
2023-09-04T10:25:54.545Z,37.49
2023-09-04T10:28:43.911Z,37.06
2023-09-04T10:31:11.947Z,38.14
2023-09-04T10:33:39.430Z,37.29
2023-09-04T10:36:07.070Z,37.47
2023-09-04T10:38:36.373Z,38.07
2023-09-04T10:41:05.478Z,39.11
2023-09-04T10:43:45.117Z,39.59
2023-09-04T10:46:14.082Z,39.21
2023-09-04T10:48:45.261Z,39.25
2023-09-04T10:51:30.506Z,39.06
2023-09-04T10:53:59.224Z,40.12
2023-09-04T10:56:26.523Z,40.63
2023-09-04T10:59:06.670Z,39.82
2023-09-04T11:01:36.105Z,39.52
2023-09-04T11:04:07.571Z,39.48
2023-09-04T11:06:41.982Z,38.93
2023-09-04T11:09:15.382Z,38.75
2023-09-04T11:11:41.868Z,38.83
2023-09-04T11:14:10.528Z,39.70
2023-09-04T11:16:41.588Z,38.59
2023-09-04T11:19:19.404Z,38.64
2023-09-04T11:21:47.916Z,39.00
2023-09-04T11:24:15.464Z,39.88
2023-09-04T11:26:42.057Z,39.92
2023-09-04T11:29:08.955Z,41.00
2023-09-04T11:31:36.071Z,39.99
2023-09-04T11:34:05.953Z,40.13
2023-09-04T11:36:38.551Z,40.61
2023-09-04T11:39:07.463Z,41.08
2023-09-04T11:41:34.226Z,40.69
2023-09-04T11:44:02.598Z,40.99
2023-09-04T11:46:29.694Z,41.29
2023-09-04T11:48:57.296Z,41.54
2023-09-04T11:51:24.229Z,41.07
2023-09-04T11:53:51.256Z,40.88
2023-09-04T11:56:18.270Z,41.17
2023-09-04T11:58:44.869Z,41.26
2023-09-04T12:01:11.769Z,41.54
2023-09-04T12:03:38.374Z,41.11
2023-09-04T12:06:05.097Z,41.11
2023-09-04T12:08:31.737Z,41.01
2023-09-04T12:10:58.503Z,41.29
2023-09-04T12:13:25.441Z,41.36
2023-09-04T12:15:52.301Z,41.22
2023-09-04T12:18:19.190Z,40.92
2023-09-04T12:20:46.511Z,41.50
2023-09-04T12:23:15.077Z,42.18
2023-09-04T12:25:44.350Z,41.91
2023-09-04T12:28:16.172Z,42.21
2023-09-04T12:30:48.844Z,41.64
2023-09-04T12:33:19.211Z,41.41
2023-09-04T12:35:56.338Z,40.68
2023-09-04T12:38:23.009Z,40.75
2023-09-04T12:40:49.585Z,40.39
2023-09-04T12:43:16.208Z,40.84
2023-09-04T12:45:43.763Z,40.51
2023-09-04T12:48:17.951Z,40.79
2023-09-04T12:50:45.374Z,40.95
2023-09-04T12:53:11.930Z,41.25
2023-09-04T12:55:38.434Z,41.14
2023-09-04T12:58:10.590Z,40.78
2023-09-04T13:00:38.524Z,40.47
2023-09-04T13:03:07.410Z,40.78
2023-09-04T13:05:34.512Z,40.45
2023-09-04T13:08:01.097Z,40.22
2023-09-04T13:10:27.808Z,40.53
2023-09-04T13:12:54.470Z,39.71
2023-09-04T13:15:21.117Z,39.82
2023-09-04T13:17:47.784Z,39.98
2023-09-04T13:20:15.635Z,40.70
2023-09-04T13:22:43.951Z,41.72
2023-09-04T13:25:11.014Z,41.94
2023-09-04T13:27:39.562Z,42.18
2023-09-04T13:30:07.241Z,42.22
2023-09-04T13:32:33.837Z,41.54
2023-09-04T13:35:00.678Z,40.52
2023-09-04T13:37:28.093Z,39.78
2023-09-04T13:39:54.666Z,40.87
2023-09-04T13:42:21.606Z,41.10
2023-09-04T13:44:49.276Z,41.03
2023-09-04T13:47:16.455Z,39.70
2023-09-04T13:49:44.339Z,40.44
2023-09-04T13:52:14.212Z,40.51
2023-09-04T13:54:41.361Z,39.89
2023-09-04T13:57:08.518Z,40.11
2023-09-04T13:59:35.246Z,40.14
2023-09-04T14:02:01.834Z,38.80
2023-09-04T14:04:28.426Z,38.68
2023-09-04T14:06:54.947Z,39.28
2023-09-04T14:09:21.499Z,39.45
2023-09-04T14:11:49.018Z,39.96
2023-09-04T14:14:19.800Z,39.71
2023-09-04T14:16:46.381Z,39.81
2023-09-04T14:19:14.622Z,39.64
2023-09-04T14:21:41.382Z,39.34
2023-09-04T14:24:08.030Z,39.45
2023-09-04T14:26:34.507Z,39.13
2023-09-04T14:29:01.838Z,38.91
2023-09-04T14:31:29.505Z,38.47
2023-09-04T14:33:56.015Z,37.93
2023-09-04T14:36:22.585Z,37.87
2023-09-04T14:38:49.849Z,37.69
2023-09-04T14:41:33.262Z,37.24
2023-09-04T14:44:00.643Z,36.77
2023-09-04T14:46:27.680Z,37.03
2023-09-04T14:48:55.852Z,37.00
2023-09-04T14:51:24.031Z,36.97
2023-09-04T14:53:52.630Z,36.91
2023-09-04T14:56:20.903Z,37.09
2023-09-04T14:58:47.467Z,37.09
2023-09-04T15:01:23.608Z,36.50
2023-09-04T15:03:51.723Z,36.00
2023-09-04T15:06:18.803Z,35.99
2023-09-04T15:08:45.887Z,36.13
2023-09-04T15:11:16.312Z,35.61
2023-09-04T15:13:45.048Z,34.95
2023-09-04T15:16:11.720Z,35.04
2023-09-04T15:18:39.524Z,35.02
2023-09-04T15:21:07.420Z,34.88
2023-09-04T15:23:35.048Z,34.70
2023-09-04T15:26:01.876Z,34.67
2023-09-04T15:28:28.809Z,34.69
2023-09-04T15:30:59.419Z,34.71
2023-09-04T15:33:27.874Z,34.47
2023-09-04T15:35:55.984Z,34.44
2023-09-04T15:38:22.584Z,34.30
2023-09-04T15:40:49.448Z,34.22
2023-09-04T15:43:16.151Z,33.93
2023-09-04T15:45:42.826Z,33.90
2023-09-04T15:48:09.568Z,33.86
2023-09-04T15:50:36.355Z,33.86
2023-09-04T15:53:04.076Z,33.85
2023-09-04T15:55:31.001Z,33.52
2023-09-04T15:57:57.592Z,33.41
2023-09-04T16:00:25.413Z,33.39
2023-09-04T16:02:52.055Z,33.36
2023-09-04T16:05:18.630Z,33.35
2023-09-04T16:07:45.242Z,33.47
2023-09-04T16:10:11.805Z,33.50
2023-09-04T16:12:38.416Z,33.57
2023-09-04T16:15:06.160Z,33.37
2023-09-04T16:17:32.878Z,33.41
2023-09-04T16:19:59.420Z,33.31
2023-09-04T16:22:25.893Z,33.16
2023-09-04T16:24:52.440Z,33.27
2023-09-04T16:27:19.008Z,33.21
2023-09-04T16:29:45.533Z,33.15
2023-09-04T16:32:12.241Z,32.92
2023-09-04T16:34:38.806Z,33.01
2023-09-04T16:37:05.831Z,32.91
2023-09-04T16:39:32.480Z,32.81
2023-09-04T16:41:59.220Z,32.83
2023-09-04T16:44:25.849Z,32.61
2023-09-04T16:46:52.361Z,32.59
2023-09-04T16:49:18.842Z,32.57
2023-09-04T16:51:55.600Z,32.41
2023-09-04T16:54:23.293Z,32.42
2023-09-04T16:56:49.801Z,32.37
2023-09-04T16:59:16.268Z,32.32
2023-09-04T17:01:43.028Z,32.24
2023-09-04T17:04:09.552Z,32.20
2023-09-04T17:06:36.225Z,32.11
2023-09-04T17:09:03.141Z,32.15
2023-09-04T17:11:29.887Z,32.14
2023-09-04T17:13:56.449Z,32.03
2023-09-04T17:16:23.165Z,32.09
2023-09-04T17:18:49.774Z,31.92
2023-09-04T17:21:16.391Z,31.97
2023-09-04T17:23:42.965Z,31.77
2023-09-04T17:26:09.514Z,31.94
2023-09-04T17:28:36.176Z,31.77
2023-09-04T17:31:06.900Z,31.80
2023-09-04T17:33:34.113Z,31.66
2023-09-04T17:36:02.602Z,31.52
2023-09-04T17:38:38.543Z,31.45
2023-09-04T17:41:12.488Z,31.41
2023-09-04T17:43:39.685Z,31.22
2023-09-04T17:46:08.668Z,31.21
2023-09-04T17:48:35.809Z,31.09
2023-09-04T17:51:02.354Z,31.01
2023-09-04T17:53:28.914Z,30.84
2023-09-04T17:55:55.615Z,30.70
2023-09-04T17:58:22.252Z,30.73
2023-09-04T18:00:48.838Z,30.69
2023-09-04T18:03:15.541Z,30.67
2023-09-04T18:05:43.372Z,30.61
2023-09-04T18:08:09.932Z,30.22
2023-09-04T18:10:37.752Z,30.09
2023-09-04T18:13:04.951Z,29.81
2023-09-04T18:15:31.537Z,29.79
2023-09-04T18:17:58.191Z,29.68
2023-09-04T18:20:24.807Z,29.46
2023-09-04T18:22:51.606Z,29.44
2023-09-04T18:25:19.128Z,29.44
2023-09-04T18:27:45.654Z,29.31
2023-09-04T18:30:15.029Z,29.13
2023-09-04T18:32:42.060Z,29.29
2023-09-04T18:35:09.241Z,29.29
2023-09-04T18:37:35.806Z,29.22
2023-09-04T18:40:02.335Z,29.20
2023-09-04T18:42:29.007Z,29.04
2023-09-04T18:44:55.764Z,29.00
2023-09-04T18:47:22.461Z,28.96
2023-09-04T18:49:51.772Z,28.77
2023-09-04T18:52:19.902Z,28.89
2023-09-04T18:54:47.972Z,28.76
2023-09-04T18:57:15.491Z,28.79
2023-09-04T18:59:42.104Z,28.64
2023-09-04T19:02:08.951Z,28.54
2023-09-04T19:04:36.672Z,28.57
2023-09-04T19:07:06.507Z,28.58
2023-09-04T19:09:33.938Z,28.58
2023-09-04T19:12:01.803Z,28.51
2023-09-04T19:14:29.550Z,28.47
2023-09-04T19:16:56.336Z,28.22
2023-09-04T19:19:23.926Z,28.27
2023-09-04T19:21:50.700Z,28.19
2023-09-04T19:24:17.273Z,28.09
2023-09-04T19:26:44.356Z,28.13
2023-09-04T19:29:10.822Z,28.02
2023-09-04T19:31:37.495Z,28.12
2023-09-04T19:34:04.298Z,27.90
2023-09-04T19:36:30.851Z,27.84
2023-09-04T19:38:57.431Z,27.69
2023-09-04T19:41:24.289Z,27.42
2023-09-04T19:43:50.928Z,27.37
2023-09-04T19:46:17.595Z,27.24
2023-09-04T19:48:44.109Z,27.27
2023-09-04T19:51:10.820Z,27.38
2023-09-04T19:53:37.534Z,27.47
2023-09-04T19:56:05.191Z,27.48
2023-09-04T19:58:32.064Z,27.50
2023-09-04T20:00:59.763Z,27.60
2023-09-04T20:03:26.792Z,27.49
2023-09-04T20:05:53.958Z,27.45
2023-09-04T20:08:20.529Z,27.44
2023-09-04T20:10:47.134Z,27.50
2023-09-04T20:13:13.599Z,27.50
2023-09-04T20:15:40.242Z,27.34
2023-09-04T20:18:06.833Z,27.05
2023-09-04T20:20:33.490Z,27.24
2023-09-04T20:23:00.035Z,27.20
2023-09-04T20:25:26.526Z,27.26
2023-09-04T20:27:53.146Z,27.25
2023-09-04T20:30:24.771Z,27.31
2023-09-04T20:32:53.738Z,27.18
2023-09-04T20:35:20.402Z,27.27
2023-09-04T20:37:46.909Z,27.31
2023-09-04T20:40:13.395Z,27.33
2023-09-04T20:42:40.398Z,27.24
2023-09-04T20:45:07.883Z,27.24
2023-09-04T20:47:36.217Z,27.11
2023-09-04T20:50:06.401Z,26.94
2023-09-04T20:52:33.151Z,27.01
2023-09-04T20:54:59.736Z,27.05
2023-09-04T20:57:26.275Z,26.99
2023-09-04T20:59:52.821Z,26.77
2023-09-04T21:02:19.499Z,26.39
2023-09-04T21:04:46.347Z,26.39
2023-09-04T21:07:12.790Z,26.58
2023-09-04T21:09:39.272Z,26.85
2023-09-04T21:12:24.802Z,26.86
2023-09-04T21:15:10.200Z,26.85
2023-09-04T21:17:55.292Z,26.91
2023-09-04T21:20:40.553Z,26.97
2023-09-04T21:23:25.741Z,26.60
2023-09-04T21:26:11.276Z,26.68
2023-09-04T21:28:56.354Z,26.79
2023-09-04T21:31:41.175Z,26.91
2023-09-04T21:34:26.060Z,26.94
2023-09-04T21:37:10.899Z,26.76
2023-09-04T21:39:55.972Z,26.70
2023-09-04T21:42:40.694Z,26.80
2023-09-04T21:45:26.228Z,26.83
2023-09-04T21:48:11.356Z,26.69
2023-09-04T21:50:56.286Z,26.32
2023-09-04T21:53:41.266Z,26.26
2023-09-04T21:56:26.679Z,26.37
2023-09-04T21:59:11.462Z,26.47
2023-09-04T22:01:56.298Z,26.47
2023-09-04T22:04:41.431Z,26.45
2023-09-04T22:07:26.344Z,26.40
2023-09-04T22:10:11.386Z,26.41
2023-09-04T22:12:56.198Z,26.45
2023-09-04T22:15:41.139Z,26.49
2023-09-04T22:18:37.819Z,26.37
2023-09-04T22:21:23.266Z,26.21
2023-09-04T22:24:09.923Z,26.30
2023-09-04T22:26:55.330Z,26.35
2023-09-04T22:29:42.794Z,26.31
2023-09-04T22:32:28.841Z,26.23
2023-09-04T22:35:14.904Z,26.18
2023-09-04T22:38:00.345Z,26.12
2023-09-04T22:40:45.223Z,26.10
2023-09-04T22:43:30.251Z,26.07
2023-09-04T22:46:15.046Z,26.14
2023-09-04T22:48:59.932Z,26.17
2023-09-04T22:51:44.960Z,26.15
2023-09-04T22:54:29.883Z,25.94
2023-09-04T22:57:14.932Z,25.89
2023-09-04T22:59:59.780Z,25.73
2023-09-04T23:02:45.319Z,25.93
2023-09-04T23:05:30.113Z,25.91
2023-09-04T23:08:15.036Z,25.54
2023-09-04T23:11:00.665Z,25.51
2023-09-04T23:13:45.954Z,25.60
2023-09-04T23:16:31.505Z,25.84
2023-09-04T23:19:16.409Z,26.00
2023-09-04T23:21:43.059Z,25.50
2023-09-04T23:24:13.031Z,25.32
2023-09-04T23:26:41.523Z,25.33
2023-09-04T23:29:12.953Z,25.32
2023-09-04T23:31:49.222Z,25.35
2023-09-04T23:34:19.376Z,25.25
2023-09-04T23:36:48.845Z,25.31
2023-09-04T23:39:21.672Z,25.21
2023-09-04T23:42:06.892Z,25.01
2023-09-04T23:44:51.863Z,24.94
2023-09-04T23:47:18.415Z,25.05
2023-09-04T23:49:44.957Z,25.02
2023-09-04T23:52:11.528Z,24.97
2023-09-04T23:54:39.101Z,24.93
2023-09-04T23:57:09.258Z,24.96
2023-09-04T23:59:36.421Z,24.92
